EST,Max TemperatureF,Mean TemperatureF,Min TemperatureF,Max Dew PointF,MeanDew PointF,Min DewpointF,Max Humidity, Mean Humidity, Min Humidity, Max Sea Level PressureIn, Mean Sea Level PressureIn, Min Sea Level PressureIn, Max VisibilityMiles, Mean VisibilityMiles, Min VisibilityMiles, Max Wind SpeedMPH, Mean Wind SpeedMPH, Max Gust SpeedMPH,PrecipitationIn, CloudCover, Events, WindDirDegrees
2012-11-1,56,51,45,55,47,44,100,93,76,29.53,29.48,29.45,10,6,1,16,7,23,0.13,8,Rain,177
2012-11-2,48,44,39,45,42,36,100,94,77,29.52,29.46,29.44,10,4,0,13,4,15,T,8,Fog-Rain,262
2012-11-3,45,41,37,40,37,34,93,88,81,29.60,29.55,29.51,10,10,10,20,8,29,0.01,8,Rain,293
2012-11-4,38,34,29,35,30,22,100,87,75,29.86,29.73,29.59,10,7,1,22,12,30,0.01,8,Rain-Snow,318
2012-11-5,30,26,21,20,16,13,75,65,53,30.00,29.94,29.87,10,10,9,16,8,21,T,7,,316
2012-11-6,31,25,19,17,13,9,86,65,41,30.24,30.09,29.98,10,10,10,18,9,25,0.00,3,,275
2012-11-7,36,25,13,22,17,11,92,70,50,30.33,30.23,30.14,10,10,10,16,7,18,0.00,1,,352
2012-11-8,33,31,29,31,28,23,100,90,75,30.14,29.96,29.81,10,4,0,18,11,25,0.04,8,Fog-Snow,2
2012-11-9,36,34,31,30,28,26,93,83,73,29.84,29.79,29.75,10,10,5,25,13,38,T,7,Rain,321
2012-11-10,35,29,22,27,15,9,80,59,44,30.42,30.14,29.83,10,10,10,31,14,44,0.00,2,,304
2012-11-11,31,25,18,24,20,15,88,73,64,30.50,30.43,30.37,10,10,10,12,5,14,T,6,,142
2012-11-12,48,39,29,44,36,25,100,90,77,30.39,30.26,30.09,10,7,0,20,10,26,0.00,3,Fog,145
2012-11-13,57,43,29,52,38,24,100,88,79,30.40,30.12,29.94,10,9,2,29,11,39,0.23,7,Rain-Snow,256
2012-11-14,36,30,24,23,21,19,85,71,56,30.58,30.54,30.42,10,10,10,13,7,17,0.00,3,,340
2012-11-15,30,25,19,25,22,17,100,86,75,30.56,30.46,30.30,10,10,2,12,5,16,0.00,6,,15
2012-11-16,39,32,24,27,24,19,89,76,55,30.39,30.30,30.25,10,10,10,18,7,24,0.00,6,,310
2012-11-17,31,25,19,14,11,7,74,58,43,30.66,30.57,30.41,10,10,10,17,8,24,0.00,1,,319
2012-11-18,36,27,18,21,18,13,85,68,48,30.74,30.69,30.61,10,10,10,9,4,12,0.00,0,,233
2012-11-19,40,31,22,22,19,15,96,67,41,30.59,30.42,30.25,10,10,10,7,3,9,0.00,0,,169
2012-11-20,45,34,22,24,21,15,78,63,44,30.23,30.21,30.16,10,10,10,9,5,14,0.00,0,,334
2012-11-21,35,32,28,34,30,24,100,93,76,30.32,30.24,30.16,10,5,0,10,6,14,0.00,6,Fog,152
2012-11-22,46,38,29,31,29,27,100,84,47,30.18,30.11,29.96,10,7,1,14,8,20,0.00,2,,177
2012-11-23,44,38,32,37,33,28,89,82,68,29.94,29.76,29.58,10,10,10,17,10,21,0.00,2,,159
2012-11-24,39,34,29,38,34,26,100,95,87,29.57,29.41,29.22,10,7,0,16,6,21,0.04,8,Fog-Rain-Snow,226
2012-11-25,29,25,21,27,19,11,93,76,53,29.48,29.27,29.20,10,7,1,31,19,40,0.02,7,Snow,276
2012-11-26,26,22,17,14,10,7,72,60,49,30.11,29.81,29.49,10,10,10,24,16,33,0.00,4,,298
2012-11-27,24,17,10,11,9,7,88,68,51,30.29,30.25,30.13,10,10,10,15,5,18,0.00,2,,275
2012-11-28,25,16,6,14,10,5,88,76,62,30.28,30.17,30.01,10,10,10,7,2,9,0.00,1,,129
2012-11-29,20,13,5,18,12,-3,96,82,63,30.13,29.96,29.89,10,6,1,22,11,32,0.02,7,Snow,277
2012-11-30,17,10,3,4,2,1,83,67,50,30.57,30.38,30.15,10,10,10,26,14,36,0.00,0,,309